createdAt,value
2022-12-29T00:01:34.240Z,45.63
2022-12-29T00:06:35.985Z,45.71
2022-12-29T00:11:37.738Z,45.77
2022-12-29T00:16:43.951Z,45.70
2022-12-29T00:22:04.485Z,45.62
2022-12-29T00:27:25.132Z,46.02
2022-12-29T00:32:45.810Z,46.35
2022-12-29T00:38:07.595Z,46.45
2022-12-29T00:43:27.963Z,46.42
2022-12-29T00:48:48.285Z,46.28
2022-12-29T00:53:50.182Z,46.43
2022-12-29T00:58:52.239Z,46.16
2022-12-29T01:03:57.383Z,45.81
2022-12-29T01:09:21.072Z,46.12
2022-12-29T01:14:23.923Z,46.01
2022-12-29T01:19:26.227Z,46.12
2022-12-29T01:24:28.213Z,46.61
2022-12-29T01:29:30.119Z,46.34
2022-12-29T01:34:31.939Z,46.12
2022-12-29T01:39:33.943Z,46.21
2022-12-29T01:44:57.488Z,46.39
2022-12-29T01:50:18.445Z,46.33
2022-12-29T01:55:20.729Z,46.36
2022-12-29T02:00:23.021Z,46.15
2022-12-29T02:05:34.409Z,46.30
2022-12-29T02:10:37.294Z,46.45
2022-12-29T02:16:00.080Z,46.52
2022-12-29T02:21:36.903Z,46.38
2022-12-29T02:27:03.634Z,46.02
2022-12-29T02:32:12.215Z,46.42
2022-12-29T02:37:23.627Z,46.26
2022-12-29T02:42:34.696Z,46.19
2022-12-29T02:47:36.383Z,46.45
2022-12-29T02:52:43.780Z,46.39
2022-12-29T02:57:45.542Z,46.55
2022-12-29T03:03:05.504Z,46.19
2022-12-29T03:08:40.309Z,46.54
2022-12-29T03:14:07.790Z,46.61
2022-12-29T03:19:15.901Z,46.57
2022-12-29T03:24:22.134Z,46.51
2022-12-29T03:29:24.868Z,46.64
2022-12-29T03:34:27.664Z,46.17
2022-12-29T03:39:30.155Z,46.20
2022-12-29T03:44:42.076Z,46.11
2022-12-29T03:49:43.855Z,46.00
2022-12-29T03:54:45.646Z,46.15
2022-12-29T03:59:47.440Z,46.46
2022-12-29T04:04:49.314Z,46.53
2022-12-29T04:09:51.031Z,46.20
2022-12-29T04:14:53.122Z,46.61
2022-12-29T04:20:14.855Z,46.68
2022-12-29T04:25:16.712Z,46.68
2022-12-29T04:30:20.449Z,46.56
2022-12-29T04:35:22.301Z,46.65
2022-12-29T04:40:24.889Z,46.47
2022-12-29T04:45:26.699Z,46.50
2022-12-29T04:50:28.682Z,46.49
2022-12-29T04:55:30.529Z,46.57
2022-12-29T05:00:32.355Z,46.55
2022-12-29T05:05:34.126Z,46.79
2022-12-29T05:10:36.163Z,46.66
2022-12-29T05:15:38.176Z,46.50
2022-12-29T05:20:39.852Z,46.09
2022-12-29T05:25:42.050Z,46.18
2022-12-29T05:30:43.807Z,46.15
2022-12-29T05:35:45.956Z,46.50
2022-12-29T05:40:47.740Z,46.39
2022-12-29T05:45:50.735Z,46.38
2022-12-29T05:50:52.976Z,46.51
2022-12-29T05:55:54.873Z,46.51
2022-12-29T06:00:56.974Z,46.30
2022-12-29T06:05:59.082Z,46.51
2022-12-29T06:11:01.222Z,46.56
2022-12-29T06:16:03.388Z,46.28
2022-12-29T06:21:06.475Z,46.36
2022-12-29T06:26:09.183Z,46.15
2022-12-29T06:31:12.054Z,46.17
2022-12-29T06:36:13.931Z,46.69
2022-12-29T06:41:15.684Z,46.66
2022-12-29T06:46:17.565Z,46.57
2022-12-29T06:51:19.627Z,46.55
2022-12-29T06:56:21.384Z,46.64
2022-12-29T07:01:23.332Z,46.38
2022-12-29T07:06:25.221Z,46.08
2022-12-29T07:11:27.043Z,46.61
2022-12-29T07:16:30.517Z,46.29
2022-12-29T07:21:32.338Z,46.43
2022-12-29T07:26:36.451Z,46.76
2022-12-29T07:31:38.490Z,46.75
2022-12-29T07:36:40.585Z,47.10
2022-12-29T07:41:42.411Z,47.41
2022-12-29T07:46:55.694Z,46.79
2022-12-29T07:51:59.587Z,46.82
2022-12-29T07:57:01.503Z,47.09
2022-12-29T08:02:03.642Z,46.80
2022-12-29T08:07:05.912Z,47.17
2022-12-29T08:12:11.431Z,47.10
2022-12-29T08:17:13.533Z,46.85
2022-12-29T08:22:16.189Z,46.95
2022-12-29T08:27:21.023Z,46.81
2022-12-29T08:32:23.433Z,46.83
2022-12-29T08:37:30.887Z,47.46
2022-12-29T08:42:33.253Z,48.27
2022-12-29T08:47:35.474Z,49.00
2022-12-29T08:52:37.135Z,49.79
2022-12-29T08:57:38.794Z,49.07
2022-12-29T09:02:40.758Z,48.58
2022-12-29T09:07:43.033Z,48.42
2022-12-29T09:12:44.994Z,48.10
2022-12-29T09:17:47.316Z,48.07
2022-12-29T09:22:49.426Z,47.85
2022-12-29T09:27:54.198Z,47.83
2022-12-29T09:32:55.906Z,47.99
2022-12-29T09:37:57.604Z,47.78
2022-12-29T09:43:27.116Z,48.02
2022-12-29T09:48:32.344Z,47.52
2022-12-29T09:53:37.453Z,47.50
2022-12-29T09:59:16.003Z,47.24
2022-12-29T10:04:18.051Z,47.29
2022-12-29T10:09:42.599Z,47.84
2022-12-29T10:15:12.109Z,47.76
2022-12-29T10:20:54.487Z,47.46
2022-12-29T10:25:57.959Z,46.29
2022-12-29T10:31:08.473Z,47.05
2022-12-29T10:36:18.306Z,46.93
2022-12-29T10:41:27.120Z,46.81
2022-12-29T10:46:37.788Z,46.45
2022-12-29T10:51:43.680Z,46.43
2022-12-29T10:56:55.899Z,46.33
2022-12-29T11:02:13.249Z,46.02
2022-12-29T11:07:20.960Z,46.42
2022-12-29T11:12:27.344Z,45.81
2022-12-29T11:17:29.598Z,46.28
2022-12-29T11:22:31.455Z,46.04
2022-12-29T11:27:34.158Z,45.74
2022-12-29T11:32:35.891Z,46.16
2022-12-29T11:37:41.401Z,45.76
2022-12-29T11:42:53.579Z,45.63
2022-12-29T11:48:01.496Z,45.86
2022-12-29T11:53:26.734Z,45.87
2022-12-29T11:58:37.708Z,46.48
2022-12-29T12:03:48.392Z,46.64
2022-12-29T12:08:56.371Z,46.28
2022-12-29T12:14:24.885Z,45.83
2022-12-29T12:19:47.947Z,45.93
2022-12-29T12:25:03.378Z,45.41
2022-12-29T12:30:06.984Z,45.35
2022-12-29T12:35:19.726Z,45.48
2022-12-29T12:40:29.199Z,45.41
2022-12-29T12:46:02.190Z,45.59
2022-12-29T12:51:39.870Z,45.23
2022-12-29T12:57:06.430Z,45.61
2022-12-29T13:02:36.035Z,44.90
2022-12-29T13:07:53.132Z,45.16
2022-12-29T13:13:22.679Z,44.98
2022-12-29T13:18:27.175Z,45.07
2022-12-29T13:23:43.912Z,45.15
2022-12-29T13:28:57.301Z,45.16
2022-12-29T13:34:33.224Z,45.01
2022-12-29T13:39:50.774Z,44.92
2022-12-29T13:45:00.741Z,45.07
2022-12-29T13:50:04.883Z,45.35
2022-12-29T13:55:32.203Z,45.10
2022-12-29T14:00:54.730Z,45.53
2022-12-29T14:06:33.141Z,45.14
2022-12-29T14:11:40.622Z,45.11
2022-12-29T14:16:44.090Z,45.30
2022-12-29T14:22:01.803Z,45.13
2022-12-29T14:27:13.222Z,44.98
2022-12-29T14:32:27.498Z,45.56
2022-12-29T14:37:40.173Z,47.69
2022-12-29T14:42:43.366Z,48.25
2022-12-29T14:47:47.789Z,48.98
2022-12-29T14:53:02.956Z,50.02
2022-12-29T14:58:14.244Z,49.82
2022-12-29T15:03:29.288Z,50.24
2022-12-29T15:08:34.634Z,50.14
2022-12-29T15:13:39.361Z,50.29
2022-12-29T15:18:43.734Z,50.16
2022-12-29T15:23:46.387Z,50.68
2022-12-29T15:28:48.568Z,51.11
2022-12-29T15:33:53.874Z,50.10
2022-12-29T15:38:57.391Z,49.70
2022-12-29T15:44:17.747Z,49.19
2022-12-29T15:49:21.421Z,48.78
2022-12-29T15:54:24.788Z,48.15
2022-12-29T15:59:34.722Z,47.92
2022-12-29T16:04:54.226Z,47.64
2022-12-29T16:10:00.932Z,47.64
2022-12-29T16:15:05.820Z,47.66
2022-12-29T16:20:19.075Z,47.45
2022-12-29T16:25:25.450Z,47.20
2022-12-29T16:30:33.837Z,47.17
2022-12-29T16:35:46.874Z,46.91
2022-12-29T16:40:58.490Z,46.77
2022-12-29T16:46:00.338Z,46.40
2022-12-29T16:51:05.686Z,46.42
2022-12-29T16:56:18.965Z,46.49
2022-12-29T17:01:21.664Z,46.48
2022-12-29T17:06:24.027Z,45.87
2022-12-29T17:11:53.909Z,45.78
2022-12-29T17:17:01.242Z,45.81
2022-12-29T17:22:03.848Z,45.72
2022-12-29T17:27:06.068Z,45.52
2022-12-29T17:32:13.578Z,45.17
2022-12-29T17:37:29.162Z,45.45
2022-12-29T17:42:33.314Z,45.42
2022-12-29T17:47:35.040Z,45.55
2022-12-29T17:52:36.875Z,46.01
2022-12-29T17:57:38.922Z,45.91
2022-12-29T18:02:41.308Z,45.87
2022-12-29T18:07:43.354Z,46.02
2022-12-29T18:12:48.272Z,45.86
2022-12-29T18:17:55.209Z,45.87
2022-12-29T18:22:58.984Z,46.00
2022-12-29T18:28:01.069Z,45.54
2022-12-29T18:33:03.599Z,45.69
2022-12-29T18:38:08.712Z,46.54
2022-12-29T18:43:13.731Z,46.28
2022-12-29T18:48:17.319Z,46.56
2022-12-29T18:53:24.404Z,46.26
2022-12-29T18:58:34.001Z,45.78
2022-12-29T19:03:36.407Z,45.30
2022-12-29T19:08:38.292Z,45.07
2022-12-29T19:13:40.707Z,44.55
2022-12-29T19:18:44.626Z,44.96
2022-12-29T19:23:49.135Z,44.83
2022-12-29T19:28:50.889Z,44.51
2022-12-29T19:33:53.687Z,45.02
2022-12-29T19:38:56.309Z,45.51
2022-12-29T19:43:58.356Z,45.84
2022-12-29T19:49:00.756Z,45.61
2022-12-29T19:54:02.685Z,45.33
2022-12-29T19:59:04.440Z,45.46
2022-12-29T20:04:06.310Z,44.96
2022-12-29T20:09:08.385Z,44.96
2022-12-29T20:14:10.480Z,45.12
2022-12-29T20:19:12.462Z,45.40
2022-12-29T20:24:14.546Z,45.80
2022-12-29T20:29:16.444Z,47.15
2022-12-29T20:34:20.133Z,46.17
2022-12-29T20:39:22.297Z,46.52
2022-12-29T20:44:24.379Z,46.24
2022-12-29T20:49:26.535Z,45.82
2022-12-29T20:54:29.929Z,46.90
2022-12-29T20:59:33.571Z,46.76
2022-12-29T21:05:05.483Z,45.90
2022-12-29T21:09:57.432Z,45.85
2022-12-29T21:14:59.379Z,45.70
2022-12-29T21:20:01.231Z,45.48
2022-12-29T21:25:03.029Z,45.41
2022-12-29T21:30:05.142Z,45.30
2022-12-29T21:35:07.962Z,45.06
2022-12-29T21:40:10.172Z,45.29
2022-12-29T21:45:27.825Z,45.17
2022-12-29T21:50:29.833Z,45.38
2022-12-29T21:55:31.540Z,45.45
2022-12-29T22:00:51.723Z,44.89
2022-12-29T22:06:13.412Z,44.93
2022-12-29T22:11:33.616Z,45.00
2022-12-29T22:16:35.563Z,45.01
2022-12-29T22:21:37.665Z,45.27
2022-12-29T22:26:39.460Z,45.42
2022-12-29T22:31:41.710Z,45.46
2022-12-29T22:36:43.556Z,46.07
2022-12-29T22:41:45.343Z,45.30
2022-12-29T22:46:47.190Z,46.27
2022-12-29T22:51:49.196Z,45.65
2022-12-29T22:56:51.104Z,45.34
2022-12-29T23:01:52.907Z,45.04
2022-12-29T23:06:54.758Z,45.35
2022-12-29T23:11:56.672Z,44.82
2022-12-29T23:16:58.814Z,44.90
2022-12-29T23:22:00.530Z,44.66
2022-12-29T23:27:02.616Z,44.79
2022-12-29T23:32:04.765Z,44.70
2022-12-29T23:37:06.696Z,44.52
2022-12-29T23:42:09.037Z,44.62
2022-12-29T23:47:10.718Z,44.59
2022-12-29T23:52:12.536Z,44.30
2022-12-29T23:57:14.381Z,44.49
